Time;durP1;ratioP1;P1;durP2;ratioP2;P2;SDS_P1;SDS_P2;PMS_P1;PMS_P2;Temp;Humidity;BMP_temperature;BMP_pressure;BME280_temperature;BME280_humidity;BME280_pressure;Samples;Min_cycle;Max_cycle;Signal;HPM_P1;HPM_P2
2023/05/30 00:01:44;;;;;;;8.43;6.93;;;;;;;18.04;86.74;96807.16;5007376;28;20190;-72
2023/05/30 00:04:11;;;;;;;7.43;5.77;;;;;;;18.14;86.92;96817.75;5007461;28;20209;-73
2023/05/30 00:06:38;;;;;;;7.43;5.77;;;;;;;18.11;87.36;96816.22;5007975;28;20649;-73
2023/05/30 00:09:05;;;;;;;7.23;5.90;;;;;;;18.05;87.62;96814.09;5007125;28;20805;-76
2023/05/30 00:11:32;;;;;;;8.77;6.93;;;;;;;18.11;87.17;96820.63;4989557;28;20197;-75
2023/05/30 00:13:59;;;;;;;8.73;6.37;;;;;;;18.11;87.07;96818.00;5007301;28;20202;-78
2023/05/30 00:16:27;;;;;;;8.30;6.80;;;;;;;18.16;86.88;96816.66;5006956;28;20751;-71
2023/05/30 00:18:56;;;;;;;10.37;6.87;;;;;;;18.09;87.20;96817.28;5006842;28;20206;-70
2023/05/30 00:21:23;;;;;;;8.57;7.00;;;;;;;18.09;86.65;96812.88;5006905;28;20220;-75
2023/05/30 00:23:50;;;;;;;8.93;6.57;;;;;;;17.88;87.25;96791.84;5006826;28;20205;-76
2023/05/30 00:26:17;;;;;;;7.43;6.67;;;;;;;18.10;87.49;96808.47;5006722;28;20245;-70
2023/05/30 00:28:51;;;;;;;7.27;5.90;;;;;;;18.10;87.81;96808.47;5005683;28;20225;-76
2023/05/30 00:31:18;;;;;;;8.63;6.77;;;;;;;18.09;88.07;96805.03;5005633;28;20285;-71
2023/05/30 00:33:46;;;;;;;8.57;6.37;;;;;;;18.18;87.26;96806.06;5007300;28;20249;-74
2023/05/30 00:36:16;;;;;;;7.27;5.87;;;;;;;18.18;87.19;96806.06;5006282;28;20210;-69
2023/05/30 00:38:43;;;;;;;7.40;6.00;;;;;;;18.20;86.84;96797.13;5006602;28;20199;-73
2023/05/30 00:41:10;;;;;;;7.73;6.87;;;;;;;18.19;86.69;96808.59;5007538;28;20226;-70
2023/05/30 00:43:38;;;;;;;9.00;6.57;;;;;;;18.17;86.70;96809.66;5010628;28;20229;-69
2023/05/30 00:46:06;;;;;;;8.73;6.47;;;;;;;17.82;87.33;96802.78;5010670;28;20193;-71
2023/05/30 00:48:33;;;;;;;7.87;6.50;;;;;;;17.66;88.22;96807.53;5010304;28;20228;-70
2023/05/30 00:51:00;;;;;;;8.90;6.33;;;;;;;17.78;88.06;96811.00;5010348;28;20200;-69
2023/05/30 00:53:28;;;;;;;7.50;6.40;;;;;;;17.83;87.75;96808.84;5010320;28;20682;-70
2023/05/30 00:55:56;;;;;;;10.80;6.27;;;;;;;17.92;87.70;96820.41;5010077;28;20377;-70
2023/05/30 00:58:23;;;;;;;8.93;6.33;;;;;;;17.70;88.42;96818.63;5010241;28;20190;-73
2023/05/30 01:00:52;;;;;;;8.20;6.30;;;;;;;17.74;88.70;96799.09;5008771;28;20257;-70
2023/05/30 01:03:24;;;;;;;7.23;6.07;;;;;;;17.83;87.00;96809.69;5010307;28;20212;-71
2023/05/30 01:05:53;;;;;;;7.60;5.90;;;;;;;17.89;86.72;96810.97;5009960;28;20213;-70
2023/05/30 01:08:20;;;;;;;7.60;6.43;;;;;;;17.91;86.61;96821.38;5010075;28;20228;-72
2023/05/30 01:10:54;;;;;;;7.23;6.30;;;;;;;17.66;87.57;96818.00;5008680;28;20198;-70
2023/05/30 01:13:33;;;;;;;6.50;5.80;;;;;;;17.72;87.18;96807.06;5009819;28;20738;-70
2023/05/30 01:16:11;;;;;;;6.97;6.17;;;;;;;17.72;86.83;96804.44;5008751;28;20202;-71
2023/05/30 01:18:42;;;;;;;9.23;7.07;;;;;;;17.83;86.59;96809.69;5005211;28;20217;-70
2023/05/30 01:21:11;;;;;;;8.77;6.10;;;;;;;17.95;86.74;96807.06;5012574;28;20197;-73
2023/05/30 01:24:13;;;;;;;8.47;6.60;;;;;;;17.92;86.43;96808.13;5011588;28;20197;-69
2023/05/30 01:26:46;;;;;;;7.87;6.40;;;;;;;17.49;88.51;96809.78;4996885;28;20205;-69
2023/05/30 01:29:17;;;;;;;6.90;6.03;;;;;;;17.56;88.84;96803.13;5011435;28;20260;-70
2023/05/30 01:31:46;;;;;;;12.20;7.37;;;;;;;17.65;89.22;96799.81;5008616;28;20192;-71
2023/05/30 01:34:14;;;;;;;7.63;6.70;;;;;;;17.70;88.64;96802.91;5009778;28;20698;-68
2023/05/30 01:36:44;;;;;;;11.27;6.87;;;;;;;17.61;88.24;96808.84;5008302;28;20212;-70
2023/05/30 01:39:11;;;;;;;9.60;6.10;;;;;;;17.60;88.64;96802.78;5008100;28;20655;-73
2023/05/30 01:41:50;;;;;;;9.33;6.93;;;;;;;17.70;88.41;96803.72;5008313;28;20201;-71
2023/05/30 01:44:48;;;;;;;9.30;7.00;;;;;;;17.76;88.03;96802.44;5009505;28;20202;-76
2023/05/30 01:47:26;;;;;;;8.30;6.43;;;;;;;17.78;87.47;96805.78;5009636;28;20197;-70
2023/05/30 01:50:15;;;;;;;7.53;6.53;;;;;;;17.85;87.05;96802.53;5007811;28;20233;-69
2023/05/30 01:52:50;;;;;;;10.07;6.70;;;;;;;17.85;86.88;96807.78;5007015;28;20328;-76
2023/05/30 01:55:18;;;;;;;7.23;6.10;;;;;;;17.99;85.97;96817.16;5007810;28;20319;-69
2023/05/30 01:57:47;;;;;;;7.30;6.13;;;;;;;18.01;85.78;96817.06;5007759;28;20586;-70
2023/05/30 02:00:21;;;;;;;7.90;6.70;;;;;;;18.03;85.53;96815.16;5007972;28;20197;-70
2023/05/30 02:02:48;;;;;;;7.27;6.50;;;;;;;17.76;86.63;96818.97;5009118;28;20193;-70
2023/05/30 02:05:15;;;;;;;11.47;7.03;;;;;;;17.72;87.00;96816.72;5007771;28;20206;-71
2023/05/30 02:07:42;;;;;;;8.73;6.03;;;;;;;17.82;86.75;96817.66;5008780;28;20207;-72
2023/05/30 02:10:10;;;;;;;7.53;5.83;;;;;;;17.81;86.71;96816.84;5007621;28;20197;-70
2023/05/30 02:12:48;;;;;;;8.53;6.00;;;;;;;17.83;86.17;96819.31;5007684;28;20199;-69
2023/05/30 02:15:15;;;;;;;10.20;7.10;;;;;;;17.44;88.56;96825.81;5007431;28;20213;-70
2023/05/30 02:17:42;;;;;;;8.10;6.23;;;;;;;17.50;89.25;96816.69;5007353;28;20223;-71
2023/05/30 02:20:10;;;;;;;8.03;5.90;;;;;;;17.56;88.73;96824.06;5007283;28;20270;-73
2023/05/30 02:23:18;;;;;;;7.13;6.40;;;;;;;17.45;88.12;96790.00;5007600;28;20360;-73
2023/05/30 02:26:38;;;;;;;9.30;7.03;;;;;;;17.60;88.86;96820.25;5008496;28;20201;-69
2023/05/30 02:30:00;;;;;;;8.57;6.67;;;;;;;17.70;88.62;96819.44;5008145;28;20232;-70
2023/05/30 02:33:21;;;;;;;10.60;7.10;;;;;;;17.82;87.78;96818.50;5008249;28;20205;-69
2023/05/30 02:36:42;;;;;;;13.37;7.10;;;;;;;17.83;87.75;96822.78;4990399;28;20688;-69
2023/05/30 02:40:03;;;;;;;9.40;6.63;;;;;;;17.67;88.45;96824.94;5008096;28;20200;-69
2023/05/30 02:43:25;;;;;;;6.80;6.10;;;;;;;17.69;88.51;96823.03;5006247;28;20200;-74
2023/05/30 02:46:47;;;;;;;6.97;5.17;;;;;;;17.66;87.73;96825.88;5006690;28;20206;-69
2023/05/30 02:50:09;;;;;;;7.67;6.23;;;;;;;17.82;87.04;96826.38;5006696;28;20237;-69
2023/05/30 02:53:30;;;;;;;6.17;4.83;;;;;;;17.61;86.64;96790.53;5006509;28;20581;-70
2023/05/30 02:56:52;;;;;;;10.00;6.80;;;;;;;17.92;85.79;96829.09;5006668;28;20244;-71
2023/05/30 03:00:31;;;;;;;7.33;6.20;;;;;;;17.88;87.02;96828.50;5006571;28;20676;-70
2023/05/30 03:04:02;;;;;;;8.73;6.33;;;;;;;17.91;87.24;96826.59;5007698;28;20194;-70
2023/05/30 03:07:26;;;;;;;8.47;6.53;;;;;;;17.92;86.59;96838.75;5006206;28;20209;-72
2023/05/30 03:10:48;;;;;;;8.43;6.70;;;;;;;17.72;86.98;96833.25;5006633;28;20198;-71
2023/05/30 03:14:09;;;;;;;10.87;6.40;;;;;;;17.35;89.70;96838.78;5007513;28;20204;-75
2023/05/30 03:17:30;;;;;;;7.17;4.70;;;;;;;17.43;88.01;96832.03;5004915;28;20212;-73
2023/05/30 03:20:52;;;;;;;6.80;5.63;;;;;;;17.49;89.06;96839.44;5005608;28;20225;-73
2023/05/30 03:24:13;;;;;;;7.37;5.93;;;;;;;17.35;88.00;96800.34;5005338;28;20199;-70
2023/05/30 03:27:33;;;;;;;7.17;4.87;;;;;;;17.62;87.63;96834.09;5007139;28;20208;-73
2023/05/30 03:30:56;;;;;;;9.20;5.97;;;;;;;17.70;87.41;96836.97;5004717;28;20193;-71
2023/05/30 03:34:16;;;;;;;8.33;5.73;;;;;;;17.74;87.08;96848.88;5004808;28;20295;-70
2023/05/30 03:37:37;;;;;;;7.53;5.27;;;;;;;17.78;87.87;96852.91;4997380;28;20222;-72
2023/05/30 03:40:58;;;;;;;8.43;6.10;;;;;;;17.77;88.65;96857.31;4996180;28;21034;-71
2023/05/30 03:44:21;;;;;;;10.20;6.67;;;;;;;17.88;87.54;96859.13;5021726;28;20207;-75
2023/05/30 03:47:42;;;;;;;7.57;6.27;;;;;;;17.87;87.74;96857.44;5007361;28;20205;-70
2023/05/30 03:51:03;;;;;;;8.30;6.77;;;;;;;17.62;88.44;96858.47;4986363;28;20208;-70
2023/05/30 03:54:24;;;;;;;9.60;6.70;;;;;;;17.61;88.70;96859.44;4985311;28;20292;-71
2023/05/30 03:57:44;;;;;;;7.73;6.93;;;;;;;17.81;88.83;96857.91;4969693;28;20230;-70
2023/05/30 04:01:05;;;;;;;7.90;6.13;;;;;;;17.79;87.96;96863.28;4986033;28;20201;-72
2023/05/30 04:04:26;;;;;;;9.97;6.63;;;;;;;17.92;87.59;96870.19;4986644;28;20834;-70
2023/05/30 04:07:47;;;;;;;7.63;6.37;;;;;;;17.97;87.60;96863.63;5019345;28;20646;-70
2023/05/30 04:11:08;;;;;;;10.50;8.27;;;;;;;17.52;89.23;96862.75;4996952;28;21105;-70
2023/05/30 04:14:29;;;;;;;9.33;7.03;;;;;;;17.56;89.76;96871.22;5001696;28;20222;-72
2023/05/30 04:17:49;;;;;;;8.37;7.33;;;;;;;17.72;89.43;96875.16;4987955;28;20210;-71
2023/05/30 04:21:12;;;;;;;14.17;9.00;;;;;;;17.76;88.49;96871.34;4973554;28;20660;-70
2023/05/30 04:24:32;;;;;;;12.33;8.27;;;;;;;17.91;87.31;96874.56;4988877;28;20206;-70
2023/05/30 04:27:54;;;;;;;11.53;9.30;;;;;;;17.96;87.75;96879.47;4989602;28;20799;-70
2023/05/30 04:31:15;;;;;;;15.80;12.50;;;;;;;18.07;87.44;96885.56;4988890;28;20234;-71
2023/05/30 04:34:37;;;;;;;14.03;9.33;;;;;;;17.98;87.34;96888.03;5003824;28;20752;-73
2023/05/30 04:37:58;;;;;;;15.37;9.30;;;;;;;17.99;87.70;96890.53;4988615;28;20209;-71
2023/05/30 04:41:20;;;;;;;15.30;8.70;;;;;;;18.06;87.06;96899.59;4989578;28;20607;-70
2023/05/30 04:44:41;;;;;;;14.57;10.43;;;;;;;17.67;89.12;96900.03;4990735;28;20680;-75
2023/05/30 04:48:03;;;;;;;13.73;9.77;;;;;;;17.75;88.38;96902.91;5004349;28;20211;-70
2023/05/30 04:51:24;;;;;;;12.17;9.27;;;;;;;17.81;87.61;96900.66;4990586;28;20194;-71
2023/05/30 04:54:44;;;;;;;11.33;9.27;;;;;;;17.48;89.77;96903.19;4988971;28;20237;-73
2023/05/30 04:58:10;;;;;;;14.67;11.10;;;;;;;17.49;90.89;96907.53;4990438;28;20225;-69
2023/05/30 05:01:35;;;;;;;12.90;8.93;;;;;;;17.67;89.87;96916.59;4990021;28;20289;-74
2023/05/30 05:04:56;;;;;;;10.93;8.93;;;;;;;17.98;90.13;96916.88;4989772;28;20252;-73
2023/05/30 05:08:16;;;;;;;12.77;9.37;;;;;;;18.13;89.46;96915.69;4972468;28;20601;-71
2023/05/30 05:11:37;;;;;;;15.80;10.83;;;;;;;18.35;88.49;96927.00;4990111;28;20237;-71
2023/05/30 05:14:58;;;;;;;14.70;10.83;;;;;;;18.32;88.14;96923.78;4990161;28;20303;-76
2023/05/30 05:17:39;;;;;;;14.73;10.00;;;;;;;18.46;87.99;96928.81;4973597;28;20209;-72
2023/05/30 05:20:07;;;;;;;13.63;11.10;;;;;;;18.51;87.53;96921.41;4989847;28;20208;-70
2023/05/30 05:22:38;;;;;;;11.57;8.70;;;;;;;18.50;85.56;96919.75;4989984;28;20277;-75
2023/05/30 05:25:06;;;;;;;10.70;8.10;;;;;;;18.59;84.93;96913.75;4989806;28;20207;-70
2023/05/30 05:27:33;;;;;;;7.07;5.87;;;;;;;18.63;84.06;96925.66;5004629;28;20235;-74
2023/05/30 05:30:00;;;;;;;5.67;3.40;;;;;;;18.65;82.17;96929.00;4988079;28;20329;-72
2023/05/30 05:32:36;;;;;;;5.33;2.50;;;;;;;18.48;81.69;96926.91;5004644;28;20241;-71
2023/05/30 05:35:04;;;;;;;4.27;2.57;;;;;;;18.43;82.82;96939.50;4989370;28;20190;-70
2023/05/30 05:37:32;;;;;;;2.60;1.60;;;;;;;18.50;83.30;96930.25;4989479;28;20305;-75
2023/05/30 05:39:59;;;;;;;3.07;1.70;;;;;;;18.55;82.62;96934.16;4971919;28;20205;-71
2023/05/30 05:42:26;;;;;;;2.77;1.43;;;;;;;18.47;83.52;96948.84;4987662;28;20216;-70
2023/05/30 05:44:53;;;;;;;1.83;1.40;;;;;;;18.50;82.99;96951.22;4989428;28;20704;-69
2023/05/30 05:47:20;;;;;;;3.87;1.50;;;;;;;18.52;83.71;96944.06;4987711;28;20197;-70
2023/05/30 05:49:47;;;;;;;1.57;1.20;;;;;;;18.62;82.26;96945.84;4989005;28;20284;-69
2023/05/30 05:52:14;;;;;;;1.23;1.07;;;;;;;18.65;82.96;96947.38;4987475;28;20196;-70
2023/05/30 05:54:41;;;;;;;2.97;1.47;;;;;;;18.59;83.58;96947.84;4989062;28;20734;-71
2023/05/30 05:57:08;;;;;;;1.80;1.50;;;;;;;18.59;82.79;96942.63;4988845;28;20232;-70
2023/05/30 05:59:35;;;;;;;1.30;1.00;;;;;;;18.65;81.22;96952.63;4988913;28;20639;-71
2023/05/30 06:02:03;;;;;;;3.00;1.40;;;;;;;18.66;80.90;96956.91;4989126;28;20194;-72
2023/05/30 06:04:31;;;;;;;2.33;1.10;;;;;;;18.65;81.77;96950.00;4988860;28;20207;-72
2023/05/30 06:06:58;;;;;;;2.43;1.53;;;;;;;18.67;81.52;96955.94;4989258;28;20666;-70
2023/05/30 06:09:30;;;;;;;3.53;1.97;;;;;;;18.77;82.68;96956.91;4988604;28;20332;-70
2023/05/30 06:11:58;;;;;;;2.40;1.67;;;;;;;18.72;82.00;96961.69;4988885;28;20740;-68
2023/05/30 06:14:29;;;;;;;2.63;1.87;;;;;;;18.94;82.77;96973.94;4987374;28;20202;-69
2023/05/30 06:16:56;;;;;;;1.77;1.43;;;;;;;18.87;81.47;96973.59;5003665;28;20207;-77
2023/05/30 06:19:23;;;;;;;2.83;1.57;;;;;;;18.78;83.05;96963.81;5003768;28;20592;-71
2023/05/30 06:21:51;;;;;;;1.97;1.77;;;;;;;18.81;82.58;96968.00;4989169;28;20191;-70
2023/05/30 06:24:20;;;;;;;2.90;1.50;;;;;;;18.91;82.37;96964.53;4971555;28;20229;-71
2023/05/30 06:26:48;;;;;;;2.70;1.93;;;;;;;19.12;82.47;96972.47;5002969;28;20206;-73
2023/05/30 06:29:15;;;;;;;3.10;2.30;;;;;;;19.13;81.67;96974.94;5003288;28;20230;-72
2023/05/30 06:31:43;;;;;;;2.30;2.10;;;;;;;19.14;81.54;96971.38;5003056;28;20210;-74
2023/05/30 06:34:10;;;;;;;2.27;1.60;;;;;;;19.10;81.88;96967.31;4988172;28;20190;-71
2023/05/30 06:36:37;;;;;;;3.57;2.23;;;;;;;19.16;81.22;96964.22;4988491;28;20218;-69
2023/05/30 06:39:05;;;;;;;4.27;1.70;;;;;;;19.19;81.37;96982.31;4987863;28;20192;-70
2023/05/30 06:41:34;;;;;;;2.63;2.23;;;;;;;19.22;81.22;96973.38;5003105;28;20207;-69
2023/05/30 06:44:01;;;;;;;3.67;2.50;;;;;;;19.27;81.37;96977.28;4987866;28;20203;-69
2023/05/30 06:46:28;;;;;;;5.10;2.97;;;;;;;19.35;80.50;96968.84;4987981;28;20219;-69
2023/05/30 06:48:56;;;;;;;6.67;3.13;;;;;;;19.45;79.86;96983.69;4987668;28;20230;-70
2023/05/30 06:51:23;;;;;;;3.40;2.97;;;;;;;19.44;79.26;96976.78;5001418;28;20655;-72
2023/05/30 06:53:50;;;;;;;4.00;2.13;;;;;;;19.47;78.48;96976.50;5022404;28;20198;-71
2023/05/30 06:56:19;;;;;;;4.23;3.80;;;;;;;19.52;79.20;96983.19;5005342;28;20663;-69
2023/05/30 06:58:46;;;;;;;5.73;3.67;;;;;;;19.59;78.84;96981.72;5007399;28;20752;-69
2023/05/30 07:01:13;;;;;;;4.13;2.37;;;;;;;19.59;78.73;96979.94;5007317;28;20257;-69
2023/05/30 07:03:40;;;;;;;3.10;2.30;;;;;;;19.54;77.91;96982.09;5006903;28;20599;-70
2023/05/30 07:06:07;;;;;;;6.60;4.50;;;;;;;19.57;78.95;96981.03;5006504;28;20195;-69
2023/05/30 07:08:35;;;;;;;2.60;2.27;;;;;;;19.69;77.96;96990.50;5006524;28;20195;-70
2023/05/30 07:11:02;;;;;;;1.83;1.73;;;;;;;19.78;77.17;96985.34;5005627;28;20217;-71
2023/05/30 07:13:29;;;;;;;2.00;1.80;;;;;;;19.64;77.33;96988.25;5005321;28;20203;-70
2023/05/30 07:15:56;;;;;;;2.97;2.03;;;;;;;19.66;77.87;96994.22;5006977;28;20206;-69
2023/05/30 07:18:23;;;;;;;3.03;2.73;;;;;;;19.70;78.08;96979.88;5005465;28;20202;-68
2023/05/30 07:20:50;;;;;;;4.90;2.80;;;;;;;19.82;77.93;96992.00;5006927;28;20223;-69
2023/05/30 07:23:18;;;;;;;4.77;3.07;;;;;;;19.85;77.04;96986.50;5006755;28;20778;-68
2023/05/30 07:25:44;;;;;;;4.63;2.10;;;;;;;19.73;76.13;96981.41;5006350;28;20200;-68
2023/05/30 07:28:12;;;;;;;3.27;2.20;;;;;;;19.78;76.21;96976.63;5005270;28;20663;-70
2023/05/30 07:30:42;;;;;;;2.73;2.20;;;;;;;19.79;75.07;96991.41;5006884;28;20445;-70
2023/05/30 07:33:10;;;;;;;3.20;1.97;;;;;;;20.05;75.08;96990.09;5021623;28;20196;-71
2023/05/30 07:35:38;;;;;;;3.10;2.80;;;;;;;20.14;73.87;96992.75;5006432;28;20291;-68
2023/05/30 07:38:05;;;;;;;2.70;2.10;;;;;;;20.02;74.08;96993.81;5004630;28;20279;-70
2023/05/30 07:40:32;;;;;;;3.83;2.13;;;;;;;20.00;74.14;96984.38;5006185;28;20226;-69
2023/05/30 07:42:59;;;;;;;4.97;2.40;;;;;;;19.97;74.78;96982.81;5005946;28;20210;-69
2023/05/30 07:45:26;;;;;;;3.47;2.10;;;;;;;20.11;74.60;96986.94;5004770;28;20682;-69
2023/05/30 07:47:54;;;;;;;3.13;2.00;;;;;;;20.10;73.28;96982.63;5021037;28;20207;-71
2023/05/30 07:50:21;;;;;;;2.70;2.10;;;;;;;20.11;73.57;96987.75;5005610;28;20620;-69
2023/05/30 07:52:48;;;;;;;3.73;3.00;;;;;;;20.24;73.65;96983.16;5004483;28;20594;-71
2023/05/30 07:55:15;;;;;;;2.93;2.50;;;;;;;20.28;73.69;96983.72;5006852;28;20230;-70
2023/05/30 07:57:42;;;;;;;2.80;2.00;;;;;;;20.33;73.30;96985.97;5006265;28;20195;-69
2023/05/30 08:00:11;;;;;;;3.30;1.97;;;;;;;20.41;73.13;96989.59;5006295;28;20206;-69
2023/05/30 08:02:38;;;;;;;2.10;1.90;;;;;;;20.37;72.42;96982.09;5004887;28;20192;-70
2023/05/30 08:05:06;;;;;;;2.70;1.87;;;;;;;20.47;72.53;96989.06;5006217;28;20250;-68
2023/05/30 08:07:33;;;;;;;2.20;2.00;;;;;;;20.46;72.42;96992.69;5006292;28;20253;-71
2023/05/30 08:10:03;;;;;;;2.93;2.67;;;;;;;20.41;73.32;96997.50;5005146;28;20229;-69
2023/05/30 08:12:30;;;;;;;3.50;2.30;;;;;;;20.47;72.61;96994.34;5006857;28;20281;-69
2023/05/30 08:14:57;;;;;;;3.00;2.53;;;;;;;20.43;73.64;96995.56;4988252;28;20238;-77
2023/05/30 08:17:27;;;;;;;4.77;3.33;;;;;;;20.52;73.89;96997.44;5005968;28;20200;-70
2023/05/30 08:19:55;;;;;;;8.57;3.27;;;;;;;20.58;73.98;96981.09;5005774;28;20264;-69
2023/05/30 08:22:23;;;;;;;4.97;2.93;;;;;;;20.58;72.77;96977.63;5005657;28;20202;-75
2023/05/30 08:24:59;;;;;;;5.37;3.07;;;;;;;20.64;73.07;96993.72;4988535;28;20641;-71
2023/05/30 08:27:26;;;;;;;5.70;2.77;;;;;;;20.74;71.78;96993.75;5004343;28;20190;-73
2023/05/30 08:29:53;;;;;;;6.50;2.93;;;;;;;20.92;71.30;97000.88;5020810;28;20597;-71
2023/05/30 08:32:22;;;;;;;4.70;3.20;;;;;;;20.79;70.80;97002.91;5005557;28;20242;-70
2023/05/30 08:34:49;;;;;;;7.40;3.07;;;;;;;20.84;70.44;97002.50;5005332;28;20196;-69
2023/05/30 08:37:17;;;;;;;4.90;2.77;;;;;;;20.98;70.28;97000.34;5005269;28;20666;-71
2023/05/30 08:39:45;;;;;;;4.90;3.07;;;;;;;21.14;69.91;97005.13;5005514;28;20187;-70
2023/05/30 08:42:52;;;;;;;5.83;3.30;;;;;;;20.97;68.51;96998.69;5020226;28;20210;-69
2023/05/30 08:46:12;;;;;;;4.90;3.40;;;;;;;21.28;67.70;97006.53;5004255;28;20271;-70
2023/05/30 08:48:54;;;;;;;8.20;3.57;;;;;;;21.48;67.98;97000.31;5001108;28;20293;-70
2023/05/30 08:51:26;;;;;;;5.23;3.83;;;;;;;21.63;66.11;97009.47;5005897;28;20199;-70
2023/05/30 08:53:57;;;;;;;10.00;4.37;;;;;;;21.68;65.33;97015.97;4996621;28;20211;-70
2023/05/30 08:56:39;;;;;;;13.20;6.83;;;;;;;21.80;65.89;97009.59;5003894;28;20270;-70
2023/05/30 08:59:09;;;;;;;9.67;4.27;;;;;;;21.87;65.37;97009.91;5004111;28;20231;-69
2023/05/30 09:01:39;;;;;;;5.70;4.30;;;;;;;21.96;65.58;97006.44;5020056;28;20217;-70
2023/05/30 09:04:09;;;;;;;5.83;4.63;;;;;;;22.03;65.23;97007.53;5007850;28;20212;-70
2023/05/30 09:06:37;;;;;;;11.07;5.53;;;;;;;21.91;63.89;97015.75;4991048;28;20214;-70
2023/05/30 09:09:08;;;;;;;8.73;4.93;;;;;;;21.79;62.77;97013.22;5007866;28;20207;-70
2023/05/30 09:11:36;;;;;;;11.47;5.23;;;;;;;21.94;63.42;97020.72;5008922;28;20221;-70
2023/05/30 09:14:03;;;;;;;10.53;5.37;;;;;;;22.03;62.48;97015.44;5007574;28;20193;-70
2023/05/30 09:16:31;;;;;;;8.60;4.90;;;;;;;22.10;62.22;97027.09;5024155;28;20296;-70
2023/05/30 09:18:59;;;;;;;11.33;6.40;;;;;;;22.22;62.57;97018.03;5009249;28;20682;-70
2023/05/30 09:21:31;;;;;;;7.80;6.20;;;;;;;22.21;61.62;97016.41;5009500;28;20184;-69
2023/05/30 09:24:03;;;;;;;15.00;5.23;;;;;;;22.12;62.93;97019.88;5008669;28;20691;-73
2023/05/30 09:26:34;;;;;;;14.07;5.90;;;;;;;22.10;62.26;97013.06;4991130;28;20626;-69
2023/05/30 09:29:11;;;;;;;8.43;5.03;;;;;;;21.90;62.28;97020.19;5008518;28;20213;-77
2023/05/30 09:31:40;;;;;;;8.73;5.47;;;;;;;21.72;63.18;97012.09;5008735;28;20715;-70
2023/05/30 09:34:07;;;;;;;5.37;4.77;;;;;;;21.68;63.59;97021.25;5007351;28;20230;-71
2023/05/30 09:36:35;;;;;;;6.57;5.07;;;;;;;21.81;63.70;97023.63;5007461;28;20644;-69
2023/05/30 09:39:06;;;;;;;7.30;5.27;;;;;;;21.84;62.61;97016.28;5007585;28;20233;-72
2023/05/30 09:41:34;;;;;;;7.27;5.37;;;;;;;21.90;63.59;97025.47;5008254;28;20597;-70
2023/05/30 09:44:05;;;;;;;10.23;5.63;;;;;;;21.87;63.74;97020.44;5009027;28;20197;-70
2023/05/30 09:46:35;;;;;;;9.40;5.80;;;;;;;21.99;63.17;97018.53;5008107;28;20212;-71
2023/05/30 09:49:12;;;;;;;13.33;5.87;;;;;;;21.98;63.68;97016.84;5008175;28;20280;-70
2023/05/30 09:51:41;;;;;;;10.57;5.47;;;;;;;22.12;63.50;97005.84;5008895;28;20214;-71
2023/05/30 09:54:09;;;;;;;5.43;4.60;;;;;;;22.33;62.19;97012.63;5008578;28;20200;-72
2023/05/30 09:56:39;;;;;;;7.20;4.27;;;;;;;22.25;62.34;97012.50;5006922;28;20252;-70
2023/05/30 09:59:12;;;;;;;7.77;4.83;;;;;;;22.34;60.94;97011.63;5006844;28;20299;-72
2023/05/30 10:01:45;;;;;;;7.27;4.40;;;;;;;22.52;60.17;96996.69;4990491;28;20209;-71
2023/05/30 10:04:13;;;;;;;11.93;5.30;;;;;;;22.47;61.97;96998.13;5007804;28;20205;-72
2023/05/30 10:06:53;;;;;;;8.10;5.20;;;;;;;22.59;62.75;97003.09;5007636;28;20252;-74
2023/05/30 10:09:24;;;;;;;9.80;6.07;;;;;;;22.59;63.77;96986.44;4991022;28;20257;-70
2023/05/30 10:11:54;;;;;;;16.83;6.10;;;;;;;22.79;62.57;96981.91;4990013;28;20209;-70
2023/05/30 10:14:21;;;;;;;7.50;5.03;;;;;;;22.85;60.32;96987.44;5007288;28;20264;-70
2023/05/30 10:16:57;;;;;;;6.20;4.40;;;;;;;22.80;61.15;96984.41;5008276;28;20206;-70
2023/05/30 10:19:35;;;;;;;7.27;4.70;;;;;;;22.80;60.13;96994.13;5022613;28;20767;-70
2023/05/30 10:22:06;;;;;;;6.47;4.90;;;;;;;22.51;59.90;96992.41;5007450;28;20576;-71
2023/05/30 10:24:33;;;;;;;8.97;4.93;;;;;;;22.54;60.37;96986.00;5005829;28;20197;-69
2023/05/30 10:27:03;;;;;;;5.27;4.77;;;;;;;22.90;59.97;96992.25;5007472;28;20782;-69
2023/05/30 10:29:46;;;;;;;8.27;4.70;;;;;;;22.99;60.47;96989.59;5007525;28;20251;-74
2023/05/30 10:32:18;;;;;;;8.03;5.60;;;;;;;23.17;60.14;96993.09;5007064;28;20189;-71
2023/05/30 10:34:59;;;;;;;14.53;5.60;;;;;;;22.98;60.86;96992.38;5022505;28;20197;-70
2023/05/30 10:37:27;;;;;;;7.60;4.97;;;;;;;23.10;61.15;96988.56;4989771;28;20213;-71
2023/05/30 10:40:33;;;;;;;9.17;5.70;;;;;;;23.48;59.56;96992.75;5007305;28;20300;-70
2023/05/30 10:43:09;;;;;;;6.60;5.43;;;;;;;23.80;58.60;96995.72;5006245;28;20378;-71
2023/05/30 10:45:55;;;;;;;9.83;5.60;;;;;;;23.94;57.10;96988.06;5005564;28;20691;-71
2023/05/30 10:48:29;;;;;;;9.27;5.17;;;;;;;23.81;56.58;96992.91;5007492;28;20196;-71
2023/05/30 10:51:00;;;;;;;15.40;6.13;;;;;;;23.82;57.40;96978.69;5021648;28;20234;-71
2023/05/30 10:53:28;;;;;;;7.83;5.63;;;;;;;23.94;57.05;96982.78;5006181;28;20200;-71
2023/05/30 10:55:55;;;;;;;10.23;5.43;;;;;;;23.95;57.56;96991.53;5007042;28;20554;-70
2023/05/30 10:58:42;;;;;;;6.27;5.33;;;;;;;23.61;57.98;96978.19;4990207;28;20604;-71
2023/05/30 11:01:30;;;;;;;8.43;5.23;;;;;;;23.61;57.17;96970.25;5022865;28;20652;-70
2023/05/30 11:04:05;;;;;;;7.23;5.20;;;;;;;23.75;57.34;96968.88;5006953;28;20321;-70
2023/05/30 11:06:38;;;;;;;10.40;6.13;;;;;;;24.07;56.77;96966.53;5021783;28;20311;-71
2023/05/30 11:09:08;;;;;;;8.23;5.67;;;;;;;23.58;58.16;96973.19;5021967;28;20198;-70
2023/05/30 11:11:43;;;;;;;9.13;4.90;;;;;;;23.64;56.39;96975.22;5005449;28;20234;-71
2023/05/30 11:14:12;;;;;;;5.93;4.83;;;;;;;23.30;57.98;96963.66;5021703;28;20703;-68
2023/05/30 11:16:55;;;;;;;7.60;6.20;;;;;;;23.37;57.57;96962.91;5006726;28;20738;-69
2023/05/30 11:19:33;;;;;;;11.00;5.17;;;;;;;23.35;56.65;96958.75;5006531;28;20199;-73
2023/05/30 11:22:03;;;;;;;8.60;5.50;;;;;;;23.54;56.65;96944.56;5006511;28;20194;-70
2023/05/30 11:24:31;;;;;;;7.83;5.50;;;;;;;23.39;56.15;96945.09;5006604;28;20722;-70
2023/05/30 11:27:08;;;;;;;6.70;4.70;;;;;;;23.59;55.77;96955.53;5006547;28;20665;-69
2023/05/30 11:29:36;;;;;;;7.87;5.17;;;;;;;23.39;56.69;96945.09;5005622;28;20645;-70
2023/05/30 11:32:07;;;;;;;6.43;4.80;;;;;;;23.45;56.34;96952.41;5005286;28;20206;-70
2023/05/30 11:34:35;;;;;;;5.97;4.60;;;;;;;23.78;55.54;96950.88;5005500;28;20230;-71
2023/05/30 11:37:04;;;;;;;6.77;5.40;;;;;;;23.95;55.40;96942.09;5004901;28;20617;-73
2023/05/30 11:39:32;;;;;;;11.73;5.80;;;;;;;24.26;55.53;96934.53;5006425;28;20218;-75
2023/05/30 11:42:00;;;;;;;10.23;8.63;;;;;;;24.64;55.08;96951.78;5006521;28;20215;-74
2023/05/30 11:44:30;;;;;;;8.67;5.40;;;;;;;24.73;54.77;96937.59;5006660;28;20204;-75
2023/05/30 11:47:06;;;;;;;7.37;5.33;;;;;;;24.84;54.27;96934.66;5005361;28;20207;-73
2023/05/30 11:49:57;;;;;;;6.80;5.23;;;;;;;24.90;54.17;96936.66;5006235;28;20234;-75
2023/05/30 11:52:24;;;;;;;8.97;5.70;;;;;;;24.81;54.83;96930.50;5005091;28;20783;-72
2023/05/30 11:55:01;;;;;;;8.83;5.50;;;;;;;25.12;53.31;96914.06;5005185;28;20324;-73
2023/05/30 11:57:30;;;;;;;11.63;6.13;;;;;;;25.30;52.89;96912.09;5005535;28;20198;-69
2023/05/30 11:59:58;;;;;;;10.30;6.23;;;;;;;25.69;51.40;96916.63;5004752;28;20204;-73
2023/05/30 12:02:29;;;;;;;9.83;4.90;;;;;;;25.51;50.70;96907.97;4988317;28;20212;-69
2023/05/30 12:05:02;;;;;;;7.17;4.83;;;;;;;25.08;51.33;96915.38;5004523;28;20230;-74
2023/05/30 12:07:33;;;;;;;9.57;5.30;;;;;;;24.80;52.57;96902.38;5005906;28;20220;-71
2023/05/30 12:10:02;;;;;;;8.70;5.30;;;;;;;24.95;52.57;96902.59;4988648;28;21017;-70
2023/05/30 12:12:34;;;;;;;7.00;5.27;;;;;;;25.14;53.54;96898.81;5006160;28;20206;-71
2023/05/30 12:15:03;;;;;;;8.00;5.27;;;;;;;25.08;53.53;96894.16;5021454;28;20246;-70
2023/05/30 12:17:39;;;;;;;5.90;4.77;;;;;;;24.92;53.59;96889.66;5005810;28;20210;-71
2023/05/30 12:20:13;;;;;;;9.53;5.00;;;;;;;24.84;54.09;96884.31;5005989;28;20205;-78
2023/05/30 12:22:44;;;;;;;7.87;5.03;;;;;;;25.00;53.58;96887.84;5004753;28;20740;-74
2023/05/30 12:25:12;;;;;;;6.73;5.17;;;;;;;24.76;54.45;96889.59;5006641;28;20233;-69
2023/05/30 12:27:46;;;;;;;6.23;4.40;;;;;;;24.63;54.05;96881.25;5006635;28;20232;-72
2023/05/30 12:30:17;;;;;;;5.87;4.20;;;;;;;24.50;53.92;96879.06;5004600;28;20635;-71
2023/05/30 12:32:45;;;;;;;6.23;4.87;;;;;;;24.37;55.33;96870.75;5006315;28;20200;-70